sensor_id;sensor_type;location;lat;lon;timestamp;P1;durP1;ratioP1;P2;durP2;ratioP2
42864;SDS011;28511;42.680;23.252;2023-04-25T00:00:56;0.30;;;0.30;;
42864;SDS011;28511;42.680;23.252;2023-04-25T00:03:21;0.95;;;0.77;;
42864;SDS011;28511;42.680;23.252;2023-04-25T00:05:47;1.67;;;1.15;;
42864;SDS011;28511;42.680;23.252;2023-04-25T00:08:12;0.77;;;0.50;;
42864;SDS011;28511;42.680;23.252;2023-04-25T00:10:38;1.25;;;0.68;;
42864;SDS011;28511;42.680;23.252;2023-04-25T00:13:03;1.55;;;1.45;;
42864;SDS011;28511;42.680;23.252;2023-04-25T00:15:28;2.28;;;1.42;;
42864;SDS011;28511;42.680;23.252;2023-04-25T00:17:57;1.30;;;0.77;;
42864;SDS011;28511;42.680;23.252;2023-04-25T00:20:22;0.73;;;0.68;;
42864;SDS011;28511;42.680;23.252;2023-04-25T00:22:48;2.60;;;1.85;;
42864;SDS011;28511;42.680;23.252;2023-04-25T00:25:14;0.80;;;0.80;;
42864;SDS011;28511;42.680;23.252;2023-04-25T00:27:39;0.82;;;0.63;;
42864;SDS011;28511;42.680;23.252;2023-04-25T00:30:04;2.33;;;1.02;;
42864;SDS011;28511;42.680;23.252;2023-04-25T00:32:30;1.58;;;0.95;;
42864;SDS011;28511;42.680;23.252;2023-04-25T00:34:56;1.08;;;1.05;;
42864;SDS011;28511;42.680;23.252;2023-04-25T00:37:22;8.73;;;1.58;;
42864;SDS011;28511;42.680;23.252;2023-04-25T00:39:47;0.50;;;0.50;;
42864;SDS011;28511;42.680;23.252;2023-04-25T00:42:13;7.05;;;1.00;;
42864;SDS011;28511;42.680;23.252;2023-04-25T00:44:38;0.73;;;0.73;;
42864;SDS011;28511;42.680;23.252;2023-04-25T00:47:04;2.08;;;1.75;;
42864;SDS011;28511;42.680;23.252;2023-04-25T00:49:30;0.60;;;0.30;;
42864;SDS011;28511;42.680;23.252;2023-04-25T00:51:55;1.20;;;0.80;;
42864;SDS011;28511;42.680;23.252;2023-04-25T00:54:21;0.20;;;0.20;;
42864;SDS011;28511;42.680;23.252;2023-04-25T00:56:47;1.35;;;0.50;;
42864;SDS011;28511;42.680;23.252;2023-04-25T00:59:12;0.88;;;0.32;;
42864;SDS011;28511;42.680;23.252;2023-04-25T01:01:38;0.73;;;0.73;;
42864;SDS011;28511;42.680;23.252;2023-04-25T01:04:04;0.90;;;0.52;;
42864;SDS011;28511;42.680;23.252;2023-04-25T01:06:29;0.30;;;0.30;;
42864;SDS011;28511;42.680;23.252;2023-04-25T01:08:55;0.28;;;0.28;;
42864;SDS011;28511;42.680;23.252;2023-04-25T01:11:20;0.60;;;0.60;;
42864;SDS011;28511;42.680;23.252;2023-04-25T01:13:46;0.40;;;0.40;;
42864;SDS011;28511;42.680;23.252;2023-04-25T01:16:11;0.40;;;0.38;;
42864;SDS011;28511;42.680;23.252;2023-04-25T01:18:38;0.95;;;0.88;;
42864;SDS011;28511;42.680;23.252;2023-04-25T01:21:07;1.45;;;1.10;;
42864;SDS011;28511;42.680;23.252;2023-04-25T01:23:32;0.47;;;0.47;;
42864;SDS011;28511;42.680;23.252;2023-04-25T01:25:58;4.40;;;1.38;;
42864;SDS011;28511;42.680;23.252;2023-04-25T01:28:23;0.52;;;0.50;;
42864;SDS011;28511;42.680;23.252;2023-04-25T01:30:49;0.60;;;0.50;;
42864;SDS011;28511;42.680;23.252;2023-04-25T01:33:15;1.15;;;0.55;;
42864;SDS011;28511;42.680;23.252;2023-04-25T01:35:40;0.40;;;0.40;;
42864;SDS011;28511;42.680;23.252;2023-04-25T01:38:06;0.52;;;0.52;;
42864;SDS011;28511;42.680;23.252;2023-04-25T01:40:31;0.83;;;0.83;;
42864;SDS011;28511;42.680;23.252;2023-04-25T01:42:56;2.65;;;1.25;;
42864;SDS011;28511;42.680;23.252;2023-04-25T01:45:21;0.47;;;0.30;;
42864;SDS011;28511;42.680;23.252;2023-04-25T01:47:47;1.02;;;0.75;;
42864;SDS011;28511;42.680;23.252;2023-04-25T01:50:14;0.43;;;0.43;;
42864;SDS011;28511;42.680;23.252;2023-04-25T01:52:40;0.70;;;0.70;;
42864;SDS011;28511;42.680;23.252;2023-04-25T01:55:05;1.02;;;0.82;;
42864;SDS011;28511;42.680;23.252;2023-04-25T01:57:31;1.90;;;1.20;;
42864;SDS011;28511;42.680;23.252;2023-04-25T02:00:00;0.77;;;0.77;;
42864;SDS011;28511;42.680;23.252;2023-04-25T02:02:26;0.63;;;0.63;;
42864;SDS011;28511;42.680;23.252;2023-04-25T02:04:51;0.30;;;0.30;;
42864;SDS011;28511;42.680;23.252;2023-04-25T02:07:16;0.57;;;0.57;;
42864;SDS011;28511;42.680;23.252;2023-04-25T02:09:42;1.38;;;0.63;;
42864;SDS011;28511;42.680;23.252;2023-04-25T02:12:08;1.20;;;1.10;;
42864;SDS011;28511;42.680;23.252;2023-04-25T02:14:33;1.05;;;0.75;;
42864;SDS011;28511;42.680;23.252;2023-04-25T02:16:59;0.63;;;0.63;;
42864;SDS011;28511;42.680;23.252;2023-04-25T02:19:24;0.50;;;0.50;;
42864;SDS011;28511;42.680;23.252;2023-04-25T02:21:50;0.70;;;0.70;;
42864;SDS011;28511;42.680;23.252;2023-04-25T02:24:15;1.60;;;1.50;;
42864;SDS011;28511;42.680;23.252;2023-04-25T02:26:40;0.85;;;0.65;;
42864;SDS011;28511;42.680;23.252;2023-04-25T02:29:05;1.53;;;0.80;;
42864;SDS011;28511;42.680;23.252;2023-04-25T02:31:31;0.70;;;0.70;;
42864;SDS011;28511;42.680;23.252;2023-04-25T02:33:56;1.38;;;1.20;;
42864;SDS011;28511;42.680;23.252;2023-04-25T02:36:21;1.58;;;1.33;;
42864;SDS011;28511;42.680;23.252;2023-04-25T02:38:47;1.13;;;1.02;;
42864;SDS011;28511;42.680;23.252;2023-04-25T02:41:12;2.05;;;1.42;;
42864;SDS011;28511;42.680;23.252;2023-04-25T02:43:37;3.45;;;1.48;;
42864;SDS011;28511;42.680;23.252;2023-04-25T02:46:03;1.53;;;1.03;;
42864;SDS011;28511;42.680;23.252;2023-04-25T02:48:28;1.00;;;1.00;;
42864;SDS011;28511;42.680;23.252;2023-04-25T02:50:54;0.68;;;0.68;;
42864;SDS011;28511;42.680;23.252;2023-04-25T02:53:19;1.20;;;1.13;;
42864;SDS011;28511;42.680;23.252;2023-04-25T02:55:44;1.35;;;1.25;;
42864;SDS011;28511;42.680;23.252;2023-04-25T02:58:10;0.50;;;0.50;;
42864;SDS011;28511;42.680;23.252;2023-04-25T03:00:36;0.85;;;0.65;;
42864;SDS011;28511;42.680;23.252;2023-04-25T03:03:01;1.63;;;1.53;;
42864;SDS011;28511;42.680;23.252;2023-04-25T03:05:26;0.93;;;0.80;;
42864;SDS011;28511;42.680;23.252;2023-04-25T03:07:51;1.95;;;1.67;;
42864;SDS011;28511;42.680;23.252;2023-04-25T03:10:17;1.60;;;1.00;;
42864;SDS011;28511;42.680;23.252;2023-04-25T03:12:42;1.23;;;0.80;;
42864;SDS011;28511;42.680;23.252;2023-04-25T03:15:07;1.98;;;1.73;;
42864;SDS011;28511;42.680;23.252;2023-04-25T03:17:33;1.48;;;1.38;;
42864;SDS011;28511;42.680;23.252;2023-04-25T03:19:58;2.55;;;1.92;;
42864;SDS011;28511;42.680;23.252;2023-04-25T03:22:24;1.90;;;1.45;;
42864;SDS011;28511;42.680;23.252;2023-04-25T03:24:49;2.20;;;2.00;;
42864;SDS011;28511;42.680;23.252;2023-04-25T03:27:15;1.05;;;1.00;;
42864;SDS011;28511;42.680;23.252;2023-04-25T03:29:40;0.88;;;0.82;;
42864;SDS011;28511;42.680;23.252;2023-04-25T03:32:06;3.13;;;2.42;;
42864;SDS011;28511;42.680;23.252;2023-04-25T03:34:31;2.22;;;1.50;;
42864;SDS011;28511;42.680;23.252;2023-04-25T03:36:57;1.50;;;1.15;;
42864;SDS011;28511;42.680;23.252;2023-04-25T03:39:23;1.38;;;1.27;;
42864;SDS011;28511;42.680;23.252;2023-04-25T03:41:48;1.30;;;1.20;;
42864;SDS011;28511;42.680;23.252;2023-04-25T03:44:14;4.95;;;1.42;;
42864;SDS011;28511;42.680;23.252;2023-04-25T03:46:39;1.80;;;1.48;;
42864;SDS011;28511;42.680;23.252;2023-04-25T03:49:04;1.38;;;1.05;;
42864;SDS011;28511;42.680;23.252;2023-04-25T03:51:30;1.92;;;1.63;;
42864;SDS011;28511;42.680;23.252;2023-04-25T03:53:56;2.60;;;1.40;;
42864;SDS011;28511;42.680;23.252;2023-04-25T03:56:22;1.38;;;1.27;;
42864;SDS011;28511;42.680;23.252;2023-04-25T03:58:47;2.53;;;1.92;;
42864;SDS011;28511;42.680;23.252;2023-04-25T04:01:12;3.03;;;1.45;;
42864;SDS011;28511;42.680;23.252;2023-04-25T04:03:38;2.17;;;1.98;;
42864;SDS011;28511;42.680;23.252;2023-04-25T04:06:03;2.13;;;1.92;;
42864;SDS011;28511;42.680;23.252;2023-04-25T04:08:30;3.35;;;1.77;;
42864;SDS011;28511;42.680;23.252;2023-04-25T04:10:56;3.13;;;1.98;;
42864;SDS011;28511;42.680;23.252;2023-04-25T04:13:22;2.50;;;1.38;;
42864;SDS011;28511;42.680;23.252;2023-04-25T04:15:47;2.25;;;1.73;;
42864;SDS011;28511;42.680;23.252;2023-04-25T04:18:12;2.03;;;1.93;;
42864;SDS011;28511;42.680;23.252;2023-04-25T04:20:37;3.30;;;2.47;;
42864;SDS011;28511;42.680;23.252;2023-04-25T04:23:03;1.45;;;1.08;;
42864;SDS011;28511;42.680;23.252;2023-04-25T04:25:28;4.57;;;2.47;;
42864;SDS011;28511;42.680;23.252;2023-04-25T04:27:53;4.40;;;3.50;;
42864;SDS011;28511;42.680;23.252;2023-04-25T04:30:21;5.13;;;3.53;;
42864;SDS011;28511;42.680;23.252;2023-04-25T04:32:46;1.77;;;1.67;;
42864;SDS011;28511;42.680;23.252;2023-04-25T04:35:12;3.55;;;2.67;;
42864;SDS011;28511;42.680;23.252;2023-04-25T04:37:38;3.42;;;2.15;;
42864;SDS011;28511;42.680;23.252;2023-04-25T04:40:04;4.80;;;3.15;;
42864;SDS011;28511;42.680;23.252;2023-04-25T04:42:30;4.03;;;3.25;;
42864;SDS011;28511;42.680;23.252;2023-04-25T04:44:55;5.55;;;3.28;;
42864;SDS011;28511;42.680;23.252;2023-04-25T04:47:20;2.05;;;1.75;;
42864;SDS011;28511;42.680;23.252;2023-04-25T04:49:48;1.73;;;1.25;;
42864;SDS011;28511;42.680;23.252;2023-04-25T04:52:13;3.13;;;2.03;;
42864;SDS011;28511;42.680;23.252;2023-04-25T04:54:39;2.75;;;2.10;;
42864;SDS011;28511;42.680;23.252;2023-04-25T04:57:04;2.67;;;2.08;;
42864;SDS011;28511;42.680;23.252;2023-04-25T04:59:29;3.63;;;2.83;;
42864;SDS011;28511;42.680;23.252;2023-04-25T05:01:55;1.98;;;1.13;;
42864;SDS011;28511;42.680;23.252;2023-04-25T05:04:20;4.43;;;1.67;;
42864;SDS011;28511;42.680;23.252;2023-04-25T05:06:45;5.80;;;3.85;;
42864;SDS011;28511;42.680;23.252;2023-04-25T05:09:10;5.38;;;4.03;;
42864;SDS011;28511;42.680;23.252;2023-04-25T05:11:36;2.63;;;2.30;;
42864;SDS011;28511;42.680;23.252;2023-04-25T05:14:01;5.53;;;3.70;;
42864;SDS011;28511;42.680;23.252;2023-04-25T05:16:26;2.55;;;1.88;;
42864;SDS011;28511;42.680;23.252;2023-04-25T05:18:51;3.10;;;2.90;;
42864;SDS011;28511;42.680;23.252;2023-04-25T05:21:17;4.10;;;2.93;;
42864;SDS011;28511;42.680;23.252;2023-04-25T05:23:42;4.23;;;2.67;;
42864;SDS011;28511;42.680;23.252;2023-04-25T05:26:07;2.17;;;1.90;;
42864;SDS011;28511;42.680;23.252;2023-04-25T05:28:38;3.50;;;2.05;;
42864;SDS011;28511;42.680;23.252;2023-04-25T05:31:04;3.00;;;1.77;;
42864;SDS011;28511;42.680;23.252;2023-04-25T05:33:30;2.80;;;1.95;;
42864;SDS011;28511;42.680;23.252;2023-04-25T05:35:55;1.77;;;1.67;;
42864;SDS011;28511;42.680;23.252;2023-04-25T05:38:20;3.00;;;1.90;;
42864;SDS011;28511;42.680;23.252;2023-04-25T05:40:45;2.80;;;1.60;;
42864;SDS011;28511;42.680;23.252;2023-04-25T05:43:11;4.13;;;3.00;;
42864;SDS011;28511;42.680;23.252;2023-04-25T05:45:36;4.75;;;3.67;;
42864;SDS011;28511;42.680;23.252;2023-04-25T05:48:02;5.10;;;2.13;;
42864;SDS011;28511;42.680;23.252;2023-04-25T05:50:27;3.03;;;2.17;;
42864;SDS011;28511;42.680;23.252;2023-04-25T05:52:53;2.78;;;2.53;;
42864;SDS011;28511;42.680;23.252;2023-04-25T05:55:18;1.80;;;1.63;;
42864;SDS011;28511;42.680;23.252;2023-04-25T05:57:43;3.15;;;1.98;;
42864;SDS011;28511;42.680;23.252;2023-04-25T06:00:11;3.00;;;2.30;;
42864;SDS011;28511;42.680;23.252;2023-04-25T06:02:36;4.20;;;2.95;;
42864;SDS011;28511;42.680;23.252;2023-04-25T06:05:04;1.60;;;1.45;;
42864;SDS011;28511;42.680;23.252;2023-04-25T06:07:30;3.70;;;2.50;;
42864;SDS011;28511;42.680;23.252;2023-04-25T06:09:55;3.90;;;2.47;;
42864;SDS011;28511;42.680;23.252;2023-04-25T06:12:21;3.97;;;2.13;;
42864;SDS011;28511;42.680;23.252;2023-04-25T06:14:46;3.73;;;1.67;;
42864;SDS011;28511;42.680;23.252;2023-04-25T06:17:11;3.30;;;2.50;;
42864;SDS011;28511;42.680;23.252;2023-04-25T06:19:37;3.88;;;2.90;;
42864;SDS011;28511;42.680;23.252;2023-04-25T06:22:02;2.40;;;2.17;;
42864;SDS011;28511;42.680;23.252;2023-04-25T06:24:27;3.95;;;2.42;;
42864;SDS011;28511;42.680;23.252;2023-04-25T06:26:53;3.15;;;2.38;;
42864;SDS011;28511;42.680;23.252;2023-04-25T06:29:18;13.10;;;3.83;;
42864;SDS011;28511;42.680;23.252;2023-04-25T06:31:43;4.28;;;2.22;;
42864;SDS011;28511;42.680;23.252;2023-04-25T06:34:09;4.13;;;2.75;;
42864;SDS011;28511;42.680;23.252;2023-04-25T06:36:34;2.42;;;2.22;;
42864;SDS011;28511;42.680;23.252;2023-04-25T06:38:59;3.50;;;1.83;;
42864;SDS011;28511;42.680;23.252;2023-04-25T06:41:25;4.20;;;2.30;;
42864;SDS011;28511;42.680;23.252;2023-04-25T06:43:50;3.30;;;2.53;;
42864;SDS011;28511;42.680;23.252;2023-04-25T06:46:15;3.97;;;3.25;;
42864;SDS011;28511;42.680;23.252;2023-04-25T06:48:41;7.10;;;3.88;;
42864;SDS011;28511;42.680;23.252;2023-04-25T06:51:06;3.85;;;2.30;;
42864;SDS011;28511;42.680;23.252;2023-04-25T06:53:31;3.25;;;2.20;;
42864;SDS011;28511;42.680;23.252;2023-04-25T06:55:56;4.63;;;2.60;;
42864;SDS011;28511;42.680;23.252;2023-04-25T06:58:22;4.65;;;2.38;;
42864;SDS011;28511;42.680;23.252;2023-04-25T07:00:47;5.63;;;3.13;;
42864;SDS011;28511;42.680;23.252;2023-04-25T07:03:12;4.32;;;3.38;;
42864;SDS011;28511;42.680;23.252;2023-04-25T07:05:38;3.60;;;2.97;;
42864;SDS011;28511;42.680;23.252;2023-04-25T07:08:03;2.73;;;2.37;;
42864;SDS011;28511;42.680;23.252;2023-04-25T07:10:28;4.15;;;2.53;;
42864;SDS011;28511;42.680;23.252;2023-04-25T07:12:54;4.82;;;2.92;;
42864;SDS011;28511;42.680;23.252;2023-04-25T07:15:19;2.35;;;1.73;;
42864;SDS011;28511;42.680;23.252;2023-04-25T07:17:44;5.43;;;2.88;;
42864;SDS011;28511;42.680;23.252;2023-04-25T07:20:09;2.78;;;2.50;;
42864;SDS011;28511;42.680;23.252;2023-04-25T07:22:35;2.50;;;2.30;;
42864;SDS011;28511;42.680;23.252;2023-04-25T07:25:00;1.57;;;1.43;;
42864;SDS011;28511;42.680;23.252;2023-04-25T07:27:25;2.67;;;1.50;;
42864;SDS011;28511;42.680;23.252;2023-04-25T07:29:51;3.63;;;2.63;;
42864;SDS011;28511;42.680;23.252;2023-04-25T07:32:16;16.38;;;2.97;;
42864;SDS011;28511;42.680;23.252;2023-04-25T07:34:41;3.23;;;2.30;;
42864;SDS011;28511;42.680;23.252;2023-04-25T07:37:06;3.53;;;1.70;;
42864;SDS011;28511;42.680;23.252;2023-04-25T07:39:32;2.08;;;1.80;;
42864;SDS011;28511;42.680;23.252;2023-04-25T07:41:57;3.35;;;2.15;;
42864;SDS011;28511;42.680;23.252;2023-04-25T07:44:27;4.43;;;2.30;;
42864;SDS011;28511;42.680;23.252;2023-04-25T07:46:52;4.63;;;2.40;;
42864;SDS011;28511;42.680;23.252;2023-04-25T07:49:17;1.43;;;0.83;;
42864;SDS011;28511;42.680;23.252;2023-04-25T07:51:42;3.93;;;2.23;;
42864;SDS011;28511;42.680;23.252;2023-04-25T07:54:13;1.33;;;1.15;;
42864;SDS011;28511;42.680;23.252;2023-04-25T07:56:38;3.70;;;2.53;;
42864;SDS011;28511;42.680;23.252;2023-04-25T07:59:03;5.45;;;2.80;;
42864;SDS011;28511;42.680;23.252;2023-04-25T08:01:29;2.33;;;1.43;;
42864;SDS011;28511;42.680;23.252;2023-04-25T08:03:54;0.82;;;0.82;;
42864;SDS011;28511;42.680;23.252;2023-04-25T08:06:19;1.77;;;1.10;;
42864;SDS011;28511;42.680;23.252;2023-04-25T08:08:45;2.15;;;1.15;;
42864;SDS011;28511;42.680;23.252;2023-04-25T08:11:10;2.23;;;1.10;;
42864;SDS011;28511;42.680;23.252;2023-04-25T08:13:35;1.60;;;1.08;;
42864;SDS011;28511;42.680;23.252;2023-04-25T08:16:00;1.23;;;1.13;;
42864;SDS011;28511;42.680;23.252;2023-04-25T08:18:26;0.90;;;0.73;;
42864;SDS011;28511;42.680;23.252;2023-04-25T08:20:51;2.10;;;1.10;;
42864;SDS011;28511;42.680;23.252;2023-04-25T08:23:16;4.13;;;1.88;;
42864;SDS011;28511;42.680;23.252;2023-04-25T08:25:42;1.20;;;1.10;;
42864;SDS011;28511;42.680;23.252;2023-04-25T08:28:07;0.70;;;0.70;;
42864;SDS011;28511;42.680;23.252;2023-04-25T08:30:32;0.93;;;0.83;;
42864;SDS011;28511;42.680;23.252;2023-04-25T08:32:57;1.20;;;0.80;;
42864;SDS011;28511;42.680;23.252;2023-04-25T08:35:23;1.33;;;1.23;;
42864;SDS011;28511;42.680;23.252;2023-04-25T08:37:48;0.63;;;0.63;;
42864;SDS011;28511;42.680;23.252;2023-04-25T08:40:14;1.10;;;0.70;;
42864;SDS011;28511;42.680;23.252;2023-04-25T08:42:41;1.23;;;1.00;;
42864;SDS011;28511;42.680;23.252;2023-04-25T08:45:06;5.97;;;1.02;;
42864;SDS011;28511;42.680;23.252;2023-04-25T08:47:32;0.65;;;0.65;;
42864;SDS011;28511;42.680;23.252;2023-04-25T08:49:58;1.60;;;0.75;;
42864;SDS011;28511;42.680;23.252;2023-04-25T08:52:24;1.70;;;1.25;;
42864;SDS011;28511;42.680;23.252;2023-04-25T08:54:52;0.40;;;0.40;;
42864;SDS011;28511;42.680;23.252;2023-04-25T08:57:19;0.55;;;0.50;;
42864;SDS011;28511;42.680;23.252;2023-04-25T08:59:45;0.63;;;0.63;;
42864;SDS011;28511;42.680;23.252;2023-04-25T09:02:11;0.45;;;0.45;;
42864;SDS011;28511;42.680;23.252;2023-04-25T09:04:39;0.68;;;0.40;;
42864;SDS011;28511;42.680;23.252;2023-04-25T09:07:04;1.17;;;0.85;;
42864;SDS011;28511;42.680;23.252;2023-04-25T09:09:30;1.58;;;0.80;;
42864;SDS011;28511;42.680;23.252;2023-04-25T09:11:55;1.20;;;1.00;;
42864;SDS011;28511;42.680;23.252;2023-04-25T09:14:21;0.55;;;0.55;;
42864;SDS011;28511;42.680;23.252;2023-04-25T09:19:22;0.60;;;0.60;;
42864;SDS011;28511;42.680;23.252;2023-04-25T09:21:53;0.75;;;0.57;;
42864;SDS011;28511;42.680;23.252;2023-04-25T09:27:05;0.40;;;0.40;;
42864;SDS011;28511;42.680;23.252;2023-04-25T09:29:31;0.40;;;0.40;;
42864;SDS011;28511;42.680;23.252;2023-04-25T09:34:42;0.40;;;0.40;;
42864;SDS011;28511;42.680;23.252;2023-04-25T09:37:10;0.50;;;0.50;;
42864;SDS011;28511;42.680;23.252;2023-04-25T09:39:36;0.35;;;0.35;;
42864;SDS011;28511;42.680;23.252;2023-04-25T09:42:02;0.88;;;0.40;;
42864;SDS011;28511;42.680;23.252;2023-04-25T09:44:27;0.65;;;0.57;;
42864;SDS011;28511;42.680;23.252;2023-04-25T09:46:53;0.57;;;0.50;;
42864;SDS011;28511;42.680;23.252;2023-04-25T09:49:19;0.35;;;0.30;;
42864;SDS011;28511;42.680;23.252;2023-04-25T09:51:53;0.35;;;0.32;;
42864;SDS011;28511;42.680;23.252;2023-04-25T09:54:19;0.35;;;0.35;;
42864;SDS011;28511;42.680;23.252;2023-04-25T09:56:44;1.48;;;0.70;;
42864;SDS011;28511;42.680;23.252;2023-04-25T09:59:12;0.50;;;0.50;;
42864;SDS011;28511;42.680;23.252;2023-04-25T10:01:38;0.35;;;0.35;;
42864;SDS011;28511;42.680;23.252;2023-04-25T10:04:05;1.35;;;0.70;;
42864;SDS011;28511;42.680;23.252;2023-04-25T10:06:31;1.38;;;0.82;;
42864;SDS011;28511;42.680;23.252;2023-04-25T10:08:58;0.70;;;0.70;;
42864;SDS011;28511;42.680;23.252;2023-04-25T10:11:24;0.20;;;0.20;;
42864;SDS011;28511;42.680;23.252;2023-04-25T10:13:51;0.20;;;0.20;;
42864;SDS011;28511;42.680;23.252;2023-04-25T10:16:17;0.30;;;0.30;;
42864;SDS011;28511;42.680;23.252;2023-04-25T10:18:42;0.30;;;0.30;;
42864;SDS011;28511;42.680;23.252;2023-04-25T10:21:08;1.10;;;0.83;;
42864;SDS011;28511;42.680;23.252;2023-04-25T10:23:33;0.55;;;0.30;;
42864;SDS011;28511;42.680;23.252;2023-04-25T10:25:59;0.50;;;0.50;;
42864;SDS011;28511;42.680;23.252;2023-04-25T10:28:25;0.50;;;0.40;;
42864;SDS011;28511;42.680;23.252;2023-04-25T10:30:56;0.52;;;0.20;;
42864;SDS011;28511;42.680;23.252;2023-04-25T10:33:29;0.20;;;0.20;;
42864;SDS011;28511;42.680;23.252;2023-04-25T10:35:54;0.20;;;0.20;;
42864;SDS011;28511;42.680;23.252;2023-04-25T10:38:22;0.60;;;0.30;;
42864;SDS011;28511;42.680;23.252;2023-04-25T10:41:04;0.38;;;0.38;;
42864;SDS011;28511;42.680;23.252;2023-04-25T10:43:34;0.50;;;0.30;;
42864;SDS011;28511;42.680;23.252;2023-04-25T10:45:59;0.22;;;0.22;;
42864;SDS011;28511;42.680;23.252;2023-04-25T10:48:28;0.20;;;0.20;;
42864;SDS011;28511;42.680;23.252;2023-04-25T10:51:06;0.70;;;0.40;;
42864;SDS011;28511;42.680;23.252;2023-04-25T10:53:33;2.42;;;0.38;;
42864;SDS011;28511;42.680;23.252;2023-04-25T10:55:58;0.20;;;0.20;;
42864;SDS011;28511;42.680;23.252;2023-04-25T10:58:23;0.63;;;0.30;;
42864;SDS011;28511;42.680;23.252;2023-04-25T11:00:49;0.30;;;0.30;;
42864;SDS011;28511;42.680;23.252;2023-04-25T11:03:15;0.20;;;0.20;;
42864;SDS011;28511;42.680;23.252;2023-04-25T11:05:41;0.20;;;0.20;;
42864;SDS011;28511;42.680;23.252;2023-04-25T11:08:11;0.30;;;0.30;;
42864;SDS011;28511;42.680;23.252;2023-04-25T11:10:37;0.20;;;0.20;;
42864;SDS011;28511;42.680;23.252;2023-04-25T11:13:02;0.75;;;0.75;;
42864;SDS011;28511;42.680;23.252;2023-04-25T11:15:27;3.53;;;0.98;;
42864;SDS011;28511;42.680;23.252;2023-04-25T11:17:53;0.75;;;0.40;;
42864;SDS011;28511;42.680;23.252;2023-04-25T11:20:18;0.45;;;0.25;;
42864;SDS011;28511;42.680;23.252;2023-04-25T11:22:45;0.40;;;0.40;;
42864;SDS011;28511;42.680;23.252;2023-04-25T11:25:10;0.85;;;0.32;;
42864;SDS011;28511;42.680;23.252;2023-04-25T11:27:55;0.55;;;0.47;;
42864;SDS011;28511;42.680;23.252;2023-04-25T11:30:23;0.20;;;0.20;;
42864;SDS011;28511;42.680;23.252;2023-04-25T11:32:48;1.17;;;0.60;;
42864;SDS011;28511;42.680;23.252;2023-04-25T11:35:14;0.30;;;0.30;;
42864;SDS011;28511;42.680;23.252;2023-04-25T11:37:40;0.30;;;0.30;;
42864;SDS011;28511;42.680;23.252;2023-04-25T11:40:06;0.65;;;0.65;;
42864;SDS011;28511;42.680;23.252;2023-04-25T11:42:32;0.45;;;0.45;;
42864;SDS011;28511;42.680;23.252;2023-04-25T11:44:57;0.40;;;0.40;;
42864;SDS011;28511;42.680;23.252;2023-04-25T11:47:30;0.82;;;0.82;;
42864;SDS011;28511;42.680;23.252;2023-04-25T11:49:55;0.38;;;0.38;;
42864;SDS011;28511;42.680;23.252;2023-04-25T11:52:20;0.30;;;0.30;;
42864;SDS011;28511;42.680;23.252;2023-04-25T11:54:46;2.60;;;1.13;;
42864;SDS011;28511;42.680;23.252;2023-04-25T11:57:11;0.63;;;0.50;;
42864;SDS011;28511;42.680;23.252;2023-04-25T11:59:36;1.42;;;0.68;;
42864;SDS011;28511;42.680;23.252;2023-04-25T12:02:02;0.30;;;0.30;;
42864;SDS011;28511;42.680;23.252;2023-04-25T12:04:29;0.40;;;0.40;;
42864;SDS011;28511;42.680;23.252;2023-04-25T12:06:54;0.63;;;0.63;;
42864;SDS011;28511;42.680;23.252;2023-04-25T12:09:30;0.20;;;0.20;;
42864;SDS011;28511;42.680;23.252;2023-04-25T12:11:56;0.30;;;0.30;;
42864;SDS011;28511;42.680;23.252;2023-04-25T12:14:25;1.00;;;0.40;;
42864;SDS011;28511;42.680;23.252;2023-04-25T12:16:51;0.50;;;0.50;;
42864;SDS011;28511;42.680;23.252;2023-04-25T12:19:17;1.25;;;0.57;;
42864;SDS011;28511;42.680;23.252;2023-04-25T12:21:43;0.20;;;0.20;;
42864;SDS011;28511;42.680;23.252;2023-04-25T12:24:16;0.73;;;0.50;;
42864;SDS011;28511;42.680;23.252;2023-04-25T12:29:20;0.57;;;0.57;;
42864;SDS011;28511;42.680;23.252;2023-04-25T12:31:45;0.25;;;0.25;;
42864;SDS011;28511;42.680;23.252;2023-04-25T12:34:11;0.20;;;0.20;;
42864;SDS011;28511;42.680;23.252;2023-04-25T12:36:36;0.43;;;0.40;;
42864;SDS011;28511;42.680;23.252;2023-04-25T12:39:02;0.63;;;0.52;;
42864;SDS011;28511;42.680;23.252;2023-04-25T12:41:29;0.28;;;0.28;;
42864;SDS011;28511;42.680;23.252;2023-04-25T12:43:54;0.30;;;0.30;;
42864;SDS011;28511;42.680;23.252;2023-04-25T12:46:20;0.75;;;0.45;;
42864;SDS011;28511;42.680;23.252;2023-04-25T12:48:45;0.77;;;0.20;;
42864;SDS011;28511;42.680;23.252;2023-04-25T12:51:10;0.53;;;0.53;;
42864;SDS011;28511;42.680;23.252;2023-04-25T12:53:36;0.20;;;0.20;;
42864;SDS011;28511;42.680;23.252;2023-04-25T12:56:02;1.15;;;0.47;;
42864;SDS011;28511;42.680;23.252;2023-04-25T12:58:28;0.30;;;0.30;;
42864;SDS011;28511;42.680;23.252;2023-04-25T13:00:53;0.38;;;0.38;;
42864;SDS011;28511;42.680;23.252;2023-04-25T13:03:19;1.08;;;0.70;;
42864;SDS011;28511;42.680;23.252;2023-04-25T13:05:44;0.70;;;0.70;;
42864;SDS011;28511;42.680;23.252;2023-04-25T13:08:09;1.03;;;0.87;;
42864;SDS011;28511;42.680;23.252;2023-04-25T13:10:35;0.38;;;0.38;;
42864;SDS011;28511;42.680;23.252;2023-04-25T13:13:01;0.60;;;0.60;;
42864;SDS011;28511;42.680;23.252;2023-04-25T13:15:26;0.90;;;0.40;;
42864;SDS011;28511;42.680;23.252;2023-04-25T13:17:51;3.17;;;2.20;;
42864;SDS011;28511;42.680;23.252;2023-04-25T13:20:17;1.73;;;1.55;;
42864;SDS011;28511;42.680;23.252;2023-04-25T13:22:43;2.03;;;0.68;;
42864;SDS011;28511;42.680;23.252;2023-04-25T13:25:10;0.60;;;0.60;;
42864;SDS011;28511;42.680;23.252;2023-04-25T13:27:36;1.05;;;1.05;;
42864;SDS011;28511;42.680;23.252;2023-04-25T13:30:02;0.65;;;0.55;;
42864;SDS011;28511;42.680;23.252;2023-04-25T13:32:32;1.17;;;1.02;;
42864;SDS011;28511;42.680;23.252;2023-04-25T13:34:57;0.73;;;0.65;;
42864;SDS011;28511;42.680;23.252;2023-04-25T13:37:22;0.60;;;0.57;;
42864;SDS011;28511;42.680;23.252;2023-04-25T13:39:49;0.70;;;0.65;;
42864;SDS011;28511;42.680;23.252;2023-04-25T13:42:14;0.50;;;0.50;;
42864;SDS011;28511;42.680;23.252;2023-04-25T13:44:40;0.32;;;0.32;;
42864;SDS011;28511;42.680;23.252;2023-04-25T13:47:06;0.77;;;0.77;;
42864;SDS011;28511;42.680;23.252;2023-04-25T13:49:31;0.60;;;0.60;;
42864;SDS011;28511;42.680;23.252;2023-04-25T13:51:56;1.35;;;0.68;;
42864;SDS011;28511;42.680;23.252;2023-04-25T13:54:22;2.00;;;1.00;;
42864;SDS011;28511;42.680;23.252;2023-04-25T13:56:48;3.22;;;0.77;;
42864;SDS011;28511;42.680;23.252;2023-04-25T13:59:14;3.30;;;1.10;;
42864;SDS011;28511;42.680;23.252;2023-04-25T14:01:39;1.15;;;1.05;;
42864;SDS011;28511;42.680;23.252;2023-04-25T14:04:04;0.85;;;0.63;;
42864;SDS011;28511;42.680;23.252;2023-04-25T14:06:30;0.28;;;0.28;;
42864;SDS011;28511;42.680;23.252;2023-04-25T14:08:56;0.30;;;0.30;;
42864;SDS011;28511;42.680;23.252;2023-04-25T14:11:21;1.55;;;0.73;;
42864;SDS011;28511;42.680;23.252;2023-04-25T14:13:46;0.75;;;0.73;;
42864;SDS011;28511;42.680;23.252;2023-04-25T14:16:13;0.30;;;0.30;;
42864;SDS011;28511;42.680;23.252;2023-04-25T14:18:39;0.30;;;0.30;;
42864;SDS011;28511;42.680;23.252;2023-04-25T14:21:04;0.20;;;0.20;;
42864;SDS011;28511;42.680;23.252;2023-04-25T14:23:30;0.20;;;0.20;;
42864;SDS011;28511;42.680;23.252;2023-04-25T14:25:55;0.28;;;0.28;;
42864;SDS011;28511;42.680;23.252;2023-04-25T14:28:20;0.63;;;0.30;;
42864;SDS011;28511;42.680;23.252;2023-04-25T14:30:45;0.30;;;0.30;;
42864;SDS011;28511;42.680;23.252;2023-04-25T14:33:11;0.47;;;0.47;;
42864;SDS011;28511;42.680;23.252;2023-04-25T14:35:36;0.30;;;0.30;;